sensor_id;sensor_type;location;lat;lon;timestamp;P1;durP1;ratioP1;P2;durP2;ratioP2
42066;SDS011;27734;47.028;28.820;2023-03-24T00:00:27;28.03;;;14.40;;
42066;SDS011;27734;47.028;28.820;2023-03-24T00:03:18;30.90;;;14.00;;
42066;SDS011;27734;47.028;28.820;2023-03-24T00:05:54;24.77;;;14.07;;
42066;SDS011;27734;47.028;28.820;2023-03-24T00:08:29;25.93;;;14.67;;
42066;SDS011;27734;47.028;28.820;2023-03-24T00:11:05;28.00;;;16.17;;
42066;SDS011;27734;47.028;28.820;2023-03-24T00:13:39;27.53;;;14.53;;
42066;SDS011;27734;47.028;28.820;2023-03-24T00:16:11;26.83;;;14.53;;
42066;SDS011;27734;47.028;28.820;2023-03-24T00:18:44;28.45;;;15.18;;
42066;SDS011;27734;47.028;28.820;2023-03-24T00:21:20;26.43;;;13.90;;
42066;SDS011;27734;47.028;28.820;2023-03-24T00:23:53;28.63;;;13.47;;
42066;SDS011;27734;47.028;28.820;2023-03-24T00:26:25;27.05;;;13.95;;
42066;SDS011;27734;47.028;28.820;2023-03-24T00:28:57;28.65;;;14.35;;
42066;SDS011;27734;47.028;28.820;2023-03-24T00:31:29;31.33;;;16.40;;
42066;SDS011;27734;47.028;28.820;2023-03-24T00:34:00;29.50;;;16.97;;
42066;SDS011;27734;47.028;28.820;2023-03-24T00:36:34;30.10;;;16.75;;
42066;SDS011;27734;47.028;28.820;2023-03-24T00:39:05;32.30;;;17.17;;
42066;SDS011;27734;47.028;28.820;2023-03-24T00:41:36;30.20;;;16.50;;
42066;SDS011;27734;47.028;28.820;2023-03-24T00:44:08;27.30;;;15.23;;
42066;SDS011;27734;47.028;28.820;2023-03-24T00:46:45;28.23;;;16.30;;
42066;SDS011;27734;47.028;28.820;2023-03-24T00:49:22;31.93;;;16.63;;
42066;SDS011;27734;47.028;28.820;2023-03-24T00:52:35;27.57;;;15.50;;
42066;SDS011;27734;47.028;28.820;2023-03-24T00:55:11;31.43;;;16.87;;
42066;SDS011;27734;47.028;28.820;2023-03-24T00:57:44;30.13;;;17.27;;
42066;SDS011;27734;47.028;28.820;2023-03-24T01:00:18;30.57;;;16.83;;
42066;SDS011;27734;47.028;28.820;2023-03-24T01:02:52;30.02;;;16.55;;
42066;SDS011;27734;47.028;28.820;2023-03-24T01:05:26;29.27;;;16.15;;
42066;SDS011;27734;47.028;28.820;2023-03-24T01:07:59;31.80;;;16.83;;
42066;SDS011;27734;47.028;28.820;2023-03-24T01:10:32;28.50;;;16.20;;
42066;SDS011;27734;47.028;28.820;2023-03-24T01:13:17;31.80;;;17.57;;
42066;SDS011;27734;47.028;28.820;2023-03-24T01:15:49;31.13;;;16.57;;
42066;SDS011;27734;47.028;28.820;2023-03-24T01:18:21;28.67;;;16.23;;
42066;SDS011;27734;47.028;28.820;2023-03-24T01:20:52;30.67;;;17.07;;
42066;SDS011;27734;47.028;28.820;2023-03-24T01:23:25;30.87;;;17.13;;
42066;SDS011;27734;47.028;28.820;2023-03-24T01:25:59;30.27;;;16.70;;
42066;SDS011;27734;47.028;28.820;2023-03-24T01:28:35;31.63;;;17.87;;
42066;SDS011;27734;47.028;28.820;2023-03-24T01:31:10;33.40;;;16.80;;
42066;SDS011;27734;47.028;28.820;2023-03-24T01:33:42;30.33;;;16.73;;
42066;SDS011;27734;47.028;28.820;2023-03-24T01:36:13;32.70;;;17.70;;
42066;SDS011;27734;47.028;28.820;2023-03-24T01:38:45;30.40;;;17.50;;
42066;SDS011;27734;47.028;28.820;2023-03-24T01:41:16;32.10;;;18.30;;
42066;SDS011;27734;47.028;28.820;2023-03-24T01:43:47;31.27;;;18.00;;
42066;SDS011;27734;47.028;28.820;2023-03-24T01:46:19;30.57;;;17.73;;
42066;SDS011;27734;47.028;28.820;2023-03-24T01:48:54;33.73;;;19.23;;
42066;SDS011;27734;47.028;28.820;2023-03-24T01:51:30;35.47;;;18.63;;
42066;SDS011;27734;47.028;28.820;2023-03-24T01:54:03;35.27;;;18.33;;
42066;SDS011;27734;47.028;28.820;2023-03-24T01:56:38;31.57;;;17.85;;
42066;SDS011;27734;47.028;28.820;2023-03-24T01:59:13;31.70;;;18.67;;
42066;SDS011;27734;47.028;28.820;2023-03-24T02:02:07;32.83;;;18.60;;
42066;SDS011;27734;47.028;28.820;2023-03-24T02:04:44;35.83;;;19.50;;
42066;SDS011;27734;47.028;28.820;2023-03-24T02:07:24;31.97;;;18.07;;
42066;SDS011;27734;47.028;28.820;2023-03-24T02:10:02;34.47;;;18.63;;
42066;SDS011;27734;47.028;28.820;2023-03-24T02:12:37;32.33;;;18.73;;
42066;SDS011;27734;47.028;28.820;2023-03-24T02:15:10;33.80;;;19.17;;
42066;SDS011;27734;47.028;28.820;2023-03-24T02:20:36;31.40;;;17.47;;
42066;SDS011;27734;47.028;28.820;2023-03-24T02:26:38;34.20;;;19.20;;
42066;SDS011;27734;47.028;28.820;2023-03-24T02:36:01;30.65;;;18.05;;
42066;SDS011;27734;47.028;28.820;2023-03-24T02:39:24;32.93;;;18.60;;
42066;SDS011;27734;47.028;28.820;2023-03-24T02:44:54;32.83;;;18.50;;
42066;SDS011;27734;47.028;28.820;2023-03-24T02:47:34;33.67;;;18.70;;
42066;SDS011;27734;47.028;28.820;2023-03-24T02:50:15;35.83;;;20.10;;
42066;SDS011;27734;47.028;28.820;2023-03-24T02:52:56;33.97;;;18.83;;
42066;SDS011;27734;47.028;28.820;2023-03-24T02:55:39;35.87;;;20.03;;
42066;SDS011;27734;47.028;28.820;2023-03-24T02:58:14;33.83;;;19.43;;
42066;SDS011;27734;47.028;28.820;2023-03-24T03:00:55;34.53;;;19.93;;
42066;SDS011;27734;47.028;28.820;2023-03-24T03:03:59;34.40;;;19.47;;
42066;SDS011;27734;47.028;28.820;2023-03-24T03:06:36;48.63;;;21.90;;
42066;SDS011;27734;47.028;28.820;2023-03-24T03:09:13;55.70;;;21.90;;
42066;SDS011;27734;47.028;28.820;2023-03-24T03:11:48;45.47;;;20.50;;
42066;SDS011;27734;47.028;28.820;2023-03-24T03:14:23;34.10;;;19.37;;
42066;SDS011;27734;47.028;28.820;2023-03-24T03:17:00;34.60;;;19.33;;
42066;SDS011;27734;47.028;28.820;2023-03-24T03:19:36;36.37;;;20.23;;
42066;SDS011;27734;47.028;28.820;2023-03-24T03:22:12;35.53;;;19.27;;
42066;SDS011;27734;47.028;28.820;2023-03-24T03:24:49;39.87;;;20.60;;
42066;SDS011;27734;47.028;28.820;2023-03-24T03:27:24;38.17;;;20.57;;
42066;SDS011;27734;47.028;28.820;2023-03-24T03:30:00;40.20;;;20.87;;
42066;SDS011;27734;47.028;28.820;2023-03-24T03:32:38;36.63;;;19.77;;
42066;SDS011;27734;47.028;28.820;2023-03-24T03:35:13;38.53;;;20.70;;
42066;SDS011;27734;47.028;28.820;2023-03-24T03:37:51;37.93;;;20.47;;
42066;SDS011;27734;47.028;28.820;2023-03-24T03:40:28;37.55;;;21.05;;
42066;SDS011;27734;47.028;28.820;2023-03-24T03:43:09;40.77;;;20.20;;
42066;SDS011;27734;47.028;28.820;2023-03-24T03:45:40;43.47;;;21.67;;
42066;SDS011;27734;47.028;28.820;2023-03-24T03:48:12;41.85;;;21.95;;
42066;SDS011;27734;47.028;28.820;2023-03-24T03:50:46;38.17;;;20.37;;
42066;SDS011;27734;47.028;28.820;2023-03-24T03:53:19;38.17;;;21.33;;
42066;SDS011;27734;47.028;28.820;2023-03-24T03:55:53;36.87;;;20.80;;
42066;SDS011;27734;47.028;28.820;2023-03-24T03:58:25;39.43;;;20.97;;
42066;SDS011;27734;47.028;28.820;2023-03-24T04:00:58;39.10;;;20.20;;
42066;SDS011;27734;47.028;28.820;2023-03-24T04:03:41;38.37;;;20.30;;
42066;SDS011;27734;47.028;28.820;2023-03-24T04:06:25;37.87;;;20.10;;
42066;SDS011;27734;47.028;28.820;2023-03-24T04:09:07;37.37;;;20.97;;
42066;SDS011;27734;47.028;28.820;2023-03-24T04:15:24;36.53;;;19.90;;
42066;SDS011;27734;47.028;28.820;2023-03-24T04:18:19;38.30;;;20.75;;
42066;SDS011;27734;47.028;28.820;2023-03-24T04:21:05;38.13;;;20.67;;
42066;SDS011;27734;47.028;28.820;2023-03-24T04:23:49;38.90;;;20.25;;
42066;SDS011;27734;47.028;28.820;2023-03-24T04:26:33;40.12;;;20.60;;
42066;SDS011;27734;47.028;28.820;2023-03-24T04:29:09;38.30;;;20.57;;
42066;SDS011;27734;47.028;28.820;2023-03-24T04:31:47;38.57;;;20.93;;
42066;SDS011;27734;47.028;28.820;2023-03-24T04:34:23;38.97;;;20.40;;
42066;SDS011;27734;47.028;28.820;2023-03-24T04:37:00;38.63;;;20.63;;
42066;SDS011;27734;47.028;28.820;2023-03-24T04:39:56;36.10;;;20.63;;
42066;SDS011;27734;47.028;28.820;2023-03-24T04:42:33;45.97;;;21.63;;
42066;SDS011;27734;47.028;28.820;2023-03-24T04:45:09;39.20;;;21.00;;
42066;SDS011;27734;47.028;28.820;2023-03-24T04:47:53;39.13;;;21.63;;
42066;SDS011;27734;47.028;28.820;2023-03-24T04:50:48;43.17;;;21.33;;
42066;SDS011;27734;47.028;28.820;2023-03-24T04:53:24;38.53;;;20.43;;
42066;SDS011;27734;47.028;28.820;2023-03-24T04:55:59;35.27;;;21.73;;
42066;SDS011;27734;47.028;28.820;2023-03-24T04:59:02;39.80;;;22.40;;
42066;SDS011;27734;47.028;28.820;2023-03-24T05:01:34;38.30;;;21.57;;
42066;SDS011;27734;47.028;28.820;2023-03-24T05:04:25;39.60;;;22.07;;
42066;SDS011;27734;47.028;28.820;2023-03-24T05:07:01;43.30;;;21.60;;
42066;SDS011;27734;47.028;28.820;2023-03-24T05:09:33;44.57;;;22.47;;
42066;SDS011;27734;47.028;28.820;2023-03-24T05:12:04;41.87;;;23.07;;
42066;SDS011;27734;47.028;28.820;2023-03-24T05:14:48;38.43;;;22.13;;
42066;SDS011;27734;47.028;28.820;2023-03-24T05:17:20;41.40;;;23.03;;
42066;SDS011;27734;47.028;28.820;2023-03-24T05:19:51;41.20;;;22.27;;
42066;SDS011;27734;47.028;28.820;2023-03-24T05:22:23;42.27;;;23.33;;
42066;SDS011;27734;47.028;28.820;2023-03-24T05:24:54;40.23;;;22.87;;
42066;SDS011;27734;47.028;28.820;2023-03-24T05:27:25;43.57;;;23.70;;
42066;SDS011;27734;47.028;28.820;2023-03-24T05:29:57;43.23;;;24.57;;
42066;SDS011;27734;47.028;28.820;2023-03-24T05:32:30;38.93;;;23.77;;
42066;SDS011;27734;47.028;28.820;2023-03-24T05:35:01;41.97;;;24.40;;
42066;SDS011;27734;47.028;28.820;2023-03-24T05:37:35;37.73;;;22.70;;
42066;SDS011;27734;47.028;28.820;2023-03-24T05:40:07;41.93;;;23.83;;
42066;SDS011;27734;47.028;28.820;2023-03-24T05:42:48;41.80;;;23.90;;
42066;SDS011;27734;47.028;28.820;2023-03-24T05:45:20;41.50;;;24.00;;
42066;SDS011;27734;47.028;28.820;2023-03-24T05:47:52;39.10;;;24.43;;
42066;SDS011;27734;47.028;28.820;2023-03-24T05:50:29;46.07;;;24.30;;
42066;SDS011;27734;47.028;28.820;2023-03-24T05:53:00;43.30;;;23.97;;
42066;SDS011;27734;47.028;28.820;2023-03-24T05:55:46;55.30;;;25.67;;
42066;SDS011;27734;47.028;28.820;2023-03-24T05:58:44;41.80;;;24.37;;
42066;SDS011;27734;47.028;28.820;2023-03-24T06:01:18;43.53;;;23.83;;
42066;SDS011;27734;47.028;28.820;2023-03-24T06:04:01;46.90;;;25.23;;
42066;SDS011;27734;47.028;28.820;2023-03-24T06:06:39;41.67;;;23.97;;
42066;SDS011;27734;47.028;28.820;2023-03-24T06:09:30;55.20;;;24.53;;
42066;SDS011;27734;47.028;28.820;2023-03-24T06:12:03;41.50;;;23.73;;
42066;SDS011;27734;47.028;28.820;2023-03-24T06:14:36;44.25;;;24.60;;
42066;SDS011;27734;47.028;28.820;2023-03-24T06:17:11;45.70;;;25.53;;
42066;SDS011;27734;47.028;28.820;2023-03-24T06:19:45;40.38;;;24.30;;
42066;SDS011;27734;47.028;28.820;2023-03-24T06:22:29;41.15;;;24.57;;
42066;SDS011;27734;47.028;28.820;2023-03-24T06:25:02;42.80;;;24.27;;
42066;SDS011;27734;47.028;28.820;2023-03-24T06:27:37;43.10;;;24.63;;
42066;SDS011;27734;47.028;28.820;2023-03-24T06:30:14;43.13;;;24.77;;
42066;SDS011;27734;47.028;28.820;2023-03-24T06:32:46;42.60;;;24.67;;
42066;SDS011;27734;47.028;28.820;2023-03-24T06:35:18;39.27;;;23.10;;
42066;SDS011;27734;47.028;28.820;2023-03-24T06:37:59;37.80;;;22.53;;
42066;SDS011;27734;47.028;28.820;2023-03-24T06:40:31;33.77;;;20.53;;
42066;SDS011;27734;47.028;28.820;2023-03-24T06:43:04;34.70;;;19.87;;
42066;SDS011;27734;47.028;28.820;2023-03-24T06:48:09;36.73;;;20.10;;
42066;SDS011;27734;47.028;28.820;2023-03-24T06:50:40;40.53;;;19.63;;
42066;SDS011;27734;47.028;28.820;2023-03-24T06:53:12;36.53;;;20.00;;
42066;SDS011;27734;47.028;28.820;2023-03-24T06:55:44;32.63;;;18.90;;
42066;SDS011;27734;47.028;28.820;2023-03-24T06:58:17;42.75;;;20.48;;
42066;SDS011;27734;47.028;28.820;2023-03-24T07:01:10;40.33;;;19.20;;
42066;SDS011;27734;47.028;28.820;2023-03-24T07:03:49;35.20;;;19.37;;
42066;SDS011;27734;47.028;28.820;2023-03-24T07:06:30;36.90;;;19.15;;
42066;SDS011;27734;47.028;28.820;2023-03-24T07:09:09;34.23;;;19.30;;
42066;SDS011;27734;47.028;28.820;2023-03-24T07:11:42;33.03;;;18.43;;
42066;SDS011;27734;47.028;28.820;2023-03-24T07:14:14;39.43;;;20.60;;
42066;SDS011;27734;47.028;28.820;2023-03-24T07:16:47;48.97;;;20.47;;
42066;SDS011;27734;47.028;28.820;2023-03-24T07:19:28;33.80;;;18.50;;
42066;SDS011;27734;47.028;28.820;2023-03-24T07:22:16;36.10;;;20.10;;
42066;SDS011;27734;47.028;28.820;2023-03-24T07:25:17;30.70;;;18.37;;
42066;SDS011;27734;47.028;28.820;2023-03-24T07:27:54;36.00;;;20.13;;
42066;SDS011;27734;47.028;28.820;2023-03-24T07:30:26;33.10;;;19.40;;
42066;SDS011;27734;47.028;28.820;2023-03-24T07:32:57;37.23;;;19.27;;
42066;SDS011;27734;47.028;28.820;2023-03-24T07:35:30;33.50;;;19.20;;
42066;SDS011;27734;47.028;28.820;2023-03-24T07:38:02;34.20;;;19.17;;
42066;SDS011;27734;47.028;28.820;2023-03-24T07:40:34;33.10;;;19.13;;
42066;SDS011;27734;47.028;28.820;2023-03-24T07:43:05;33.13;;;18.47;;
42066;SDS011;27734;47.028;28.820;2023-03-24T07:46:13;44.43;;;20.13;;
42066;SDS011;27734;47.028;28.820;2023-03-24T07:48:48;35.37;;;19.07;;
42066;SDS011;27734;47.028;28.820;2023-03-24T07:51:20;31.73;;;18.03;;
42066;SDS011;27734;47.028;28.820;2023-03-24T07:54:01;32.70;;;20.00;;
42066;SDS011;27734;47.028;28.820;2023-03-24T07:56:36;32.53;;;18.10;;
42066;SDS011;27734;47.028;28.820;2023-03-24T07:59:09;39.67;;;19.20;;
42066;SDS011;27734;47.028;28.820;2023-03-24T08:01:52;30.47;;;18.43;;
42066;SDS011;27734;47.028;28.820;2023-03-24T08:04:39;35.53;;;19.37;;
42066;SDS011;27734;47.028;28.820;2023-03-24T08:07:32;35.37;;;19.40;;
42066;SDS011;27734;47.028;28.820;2023-03-24T08:10:04;33.70;;;19.47;;
42066;SDS011;27734;47.028;28.820;2023-03-24T08:12:36;32.05;;;19.35;;
42066;SDS011;27734;47.028;28.820;2023-03-24T08:15:08;30.63;;;18.27;;
42066;SDS011;27734;47.028;28.820;2023-03-24T08:17:40;37.50;;;19.53;;
42066;SDS011;27734;47.028;28.820;2023-03-24T08:20:12;33.30;;;18.27;;
42066;SDS011;27734;47.028;28.820;2023-03-24T08:22:44;33.07;;;19.33;;
42066;SDS011;27734;47.028;28.820;2023-03-24T08:25:17;33.40;;;18.67;;
42066;SDS011;27734;47.028;28.820;2023-03-24T08:27:50;28.97;;;17.23;;
42066;SDS011;27734;47.028;28.820;2023-03-24T08:30:25;27.37;;;15.83;;
42066;SDS011;27734;47.028;28.820;2023-03-24T08:35:35;32.40;;;17.27;;
42066;SDS011;27734;47.028;28.820;2023-03-24T08:38:07;27.30;;;15.73;;
42066;SDS011;27734;47.028;28.820;2023-03-24T08:40:40;29.53;;;16.47;;
42066;SDS011;27734;47.028;28.820;2023-03-24T08:43:13;29.75;;;16.05;;
42066;SDS011;27734;47.028;28.820;2023-03-24T08:45:45;28.25;;;16.00;;
42066;SDS011;27734;47.028;28.820;2023-03-24T08:48:19;29.47;;;16.97;;
42066;SDS011;27734;47.028;28.820;2023-03-24T08:53:20;33.00;;;17.00;;
42066;SDS011;27734;47.028;28.820;2023-03-24T08:55:52;28.07;;;16.50;;
42066;SDS011;27734;47.028;28.820;2023-03-24T08:58:23;26.27;;;16.50;;
42066;SDS011;27734;47.028;28.820;2023-03-24T09:00:55;29.00;;;16.43;;
42066;SDS011;27734;47.028;28.820;2023-03-24T09:03:27;26.40;;;15.70;;
42066;SDS011;27734;47.028;28.820;2023-03-24T09:05:59;25.50;;;15.57;;
42066;SDS011;27734;47.028;28.820;2023-03-24T09:08:31;28.90;;;15.90;;
42066;SDS011;27734;47.028;28.820;2023-03-24T09:11:03;29.50;;;18.10;;
42066;SDS011;27734;47.028;28.820;2023-03-24T09:13:35;28.47;;;16.73;;
42066;SDS011;27734;47.028;28.820;2023-03-24T09:16:06;31.43;;;17.57;;
42066;SDS011;27734;47.028;28.820;2023-03-24T09:18:38;28.60;;;16.40;;
42066;SDS011;27734;47.028;28.820;2023-03-24T09:21:10;26.77;;;17.30;;
42066;SDS011;27734;47.028;28.820;2023-03-24T09:23:45;32.98;;;15.30;;
42066;SDS011;27734;47.028;28.820;2023-03-24T09:26:17;30.65;;;17.37;;
42066;SDS011;27734;47.028;28.820;2023-03-24T09:28:51;27.05;;;15.53;;
42066;SDS011;27734;47.028;28.820;2023-03-24T09:31:23;28.60;;;17.05;;
42066;SDS011;27734;47.028;28.820;2023-03-24T09:33:55;28.37;;;16.20;;
42066;SDS011;27734;47.028;28.820;2023-03-24T09:36:28;31.93;;;17.23;;
42066;SDS011;27734;47.028;28.820;2023-03-24T09:39:04;27.87;;;16.97;;
42066;SDS011;27734;47.028;28.820;2023-03-24T09:41:42;26.87;;;15.33;;
42066;SDS011;27734;47.028;28.820;2023-03-24T09:44:22;26.47;;;15.33;;
42066;SDS011;27734;47.028;28.820;2023-03-24T09:47:00;32.67;;;16.33;;
42066;SDS011;27734;47.028;28.820;2023-03-24T09:49:42;28.47;;;15.20;;
42066;SDS011;27734;47.028;28.820;2023-03-24T09:52:22;26.27;;;14.97;;
42066;SDS011;27734;47.028;28.820;2023-03-24T09:54:58;32.17;;;16.33;;
42066;SDS011;27734;47.028;28.820;2023-03-24T09:57:33;26.17;;;15.32;;
42066;SDS011;27734;47.028;28.820;2023-03-24T10:00:16;29.40;;;16.00;;
42066;SDS011;27734;47.028;28.820;2023-03-24T10:02:51;28.50;;;15.15;;
42066;SDS011;27734;47.028;28.820;2023-03-24T10:05:27;28.80;;;16.47;;
42066;SDS011;27734;47.028;28.820;2023-03-24T10:08:08;28.17;;;15.90;;
42066;SDS011;27734;47.028;28.820;2023-03-24T10:10:47;25.20;;;15.07;;
42066;SDS011;27734;47.028;28.820;2023-03-24T10:13:35;34.97;;;17.17;;
42066;SDS011;27734;47.028;28.820;2023-03-24T10:16:20;30.33;;;15.83;;
42066;SDS011;27734;47.028;28.820;2023-03-24T10:19:00;28.25;;;14.90;;
42066;SDS011;27734;47.028;28.820;2023-03-24T10:21:46;26.10;;;15.93;;
42066;SDS011;27734;47.028;28.820;2023-03-24T10:24:35;29.57;;;15.73;;
42066;SDS011;27734;47.028;28.820;2023-03-24T10:27:26;25.70;;;15.30;;
42066;SDS011;27734;47.028;28.820;2023-03-24T10:30:13;26.47;;;15.83;;
42066;SDS011;27734;47.028;28.820;2023-03-24T10:32:50;25.50;;;15.27;;
42066;SDS011;27734;47.028;28.820;2023-03-24T10:35:31;26.83;;;14.07;;
42066;SDS011;27734;47.028;28.820;2023-03-24T10:38:12;25.23;;;14.80;;
42066;SDS011;27734;47.028;28.820;2023-03-24T10:40:52;28.70;;;14.33;;
42066;SDS011;27734;47.028;28.820;2023-03-24T10:43:25;29.27;;;16.53;;
42066;SDS011;27734;47.028;28.820;2023-03-24T10:45:58;26.17;;;14.00;;
42066;SDS011;27734;47.028;28.820;2023-03-24T10:51:22;22.07;;;12.97;;
42066;SDS011;27734;47.028;28.820;2023-03-24T10:54:10;25.93;;;13.80;;
42066;SDS011;27734;47.028;28.820;2023-03-24T10:56:51;26.53;;;13.90;;
42066;SDS011;27734;47.028;28.820;2023-03-24T10:59:35;22.70;;;14.00;;
42066;SDS011;27734;47.028;28.820;2023-03-24T11:02:17;25.03;;;12.20;;
42066;SDS011;27734;47.028;28.820;2023-03-24T11:04:53;23.50;;;12.87;;
42066;SDS011;27734;47.028;28.820;2023-03-24T11:07:31;22.33;;;11.97;;
42066;SDS011;27734;47.028;28.820;2023-03-24T11:10:12;20.73;;;11.70;;
42066;SDS011;27734;47.028;28.820;2023-03-24T11:13:00;22.97;;;13.07;;
42066;SDS011;27734;47.028;28.820;2023-03-24T11:15:35;21.47;;;11.97;;
42066;SDS011;27734;47.028;28.820;2023-03-24T11:18:14;24.50;;;13.00;;
42066;SDS011;27734;47.028;28.820;2023-03-24T11:20:48;22.42;;;11.57;;
42066;SDS011;27734;47.028;28.820;2023-03-24T11:23:26;24.50;;;12.13;;
42066;SDS011;27734;47.028;28.820;2023-03-24T11:26:06;22.23;;;12.30;;
42066;SDS011;27734;47.028;28.820;2023-03-24T11:28:44;26.83;;;13.43;;
42066;SDS011;27734;47.028;28.820;2023-03-24T11:31:22;25.33;;;13.50;;
42066;SDS011;27734;47.028;28.820;2023-03-24T11:34:01;22.33;;;12.07;;
42066;SDS011;27734;47.028;28.820;2023-03-24T11:36:41;21.13;;;10.93;;
42066;SDS011;27734;47.028;28.820;2023-03-24T11:39:18;22.13;;;12.07;;
42066;SDS011;27734;47.028;28.820;2023-03-24T11:42:03;21.17;;;11.47;;
42066;SDS011;27734;47.028;28.820;2023-03-24T11:44:44;22.33;;;12.23;;
42066;SDS011;27734;47.028;28.820;2023-03-24T11:47:22;21.37;;;12.30;;
42066;SDS011;27734;47.028;28.820;2023-03-24T11:50:00;20.53;;;11.57;;
42066;SDS011;27734;47.028;28.820;2023-03-24T11:52:44;23.47;;;12.47;;
42066;SDS011;27734;47.028;28.820;2023-03-24T11:55:26;23.47;;;11.83;;
42066;SDS011;27734;47.028;28.820;2023-03-24T11:58:07;22.37;;;12.43;;
42066;SDS011;27734;47.028;28.820;2023-03-24T12:00:45;20.20;;;11.67;;
42066;SDS011;27734;47.028;28.820;2023-03-24T12:03:40;21.40;;;11.93;;
42066;SDS011;27734;47.028;28.820;2023-03-24T12:06:34;22.03;;;11.57;;
42066;SDS011;27734;47.028;28.820;2023-03-24T12:09:20;19.93;;;11.87;;
42066;SDS011;27734;47.028;28.820;2023-03-24T12:12:09;24.95;;;12.43;;
42066;SDS011;27734;47.028;28.820;2023-03-24T12:15:02;19.67;;;10.90;;
42066;SDS011;27734;47.028;28.820;2023-03-24T12:17:52;19.37;;;10.73;;
42066;SDS011;27734;47.028;28.820;2023-03-24T12:20:30;20.80;;;11.03;;
42066;SDS011;27734;47.028;28.820;2023-03-24T12:23:09;19.93;;;10.57;;
42066;SDS011;27734;47.028;28.820;2023-03-24T12:25:49;21.63;;;11.93;;
42066;SDS011;27734;47.028;28.820;2023-03-24T12:28:41;17.93;;;9.93;;
42066;SDS011;27734;47.028;28.820;2023-03-24T12:31:35;18.90;;;10.40;;
42066;SDS011;27734;47.028;28.820;2023-03-24T12:34:22;19.87;;;10.57;;
42066;SDS011;27734;47.028;28.820;2023-03-24T12:37:12;20.53;;;10.53;;
42066;SDS011;27734;47.028;28.820;2023-03-24T12:39:48;19.47;;;10.23;;
42066;SDS011;27734;47.028;28.820;2023-03-24T12:42:28;21.07;;;10.97;;
42066;SDS011;27734;47.028;28.820;2023-03-24T12:45:21;21.77;;;11.27;;
42066;SDS011;27734;47.028;28.820;2023-03-24T12:48:09;19.53;;;10.83;;
42066;SDS011;27734;47.028;28.820;2023-03-24T12:50:52;21.40;;;10.40;;
42066;SDS011;27734;47.028;28.820;2023-03-24T12:53:37;17.77;;;10.13;;
42066;SDS011;27734;47.028;28.820;2023-03-24T12:56:22;17.80;;;10.00;;
42066;SDS011;27734;47.028;28.820;2023-03-24T12:59:00;23.98;;;10.95;;
42066;SDS011;27734;47.028;28.820;2023-03-24T13:01:38;17.60;;;10.20;;
42066;SDS011;27734;47.028;28.820;2023-03-24T13:04:17;20.30;;;10.70;;
42066;SDS011;27734;47.028;28.820;2023-03-24T13:06:54;19.87;;;10.80;;
42066;SDS011;27734;47.028;28.820;2023-03-24T13:09:33;22.80;;;11.00;;
42066;SDS011;27734;47.028;28.820;2023-03-24T13:12:13;18.97;;;10.97;;
42066;SDS011;27734;47.028;28.820;2023-03-24T13:14:50;21.67;;;10.23;;
42066;SDS011;27734;47.028;28.820;2023-03-24T13:17:28;19.50;;;10.57;;
42066;SDS011;27734;47.028;28.820;2023-03-24T13:20:13;19.83;;;11.73;;
42066;SDS011;27734;47.028;28.820;2023-03-24T13:22:51;21.13;;;11.57;;
42066;SDS011;27734;47.028;28.820;2023-03-24T13:25:28;24.75;;;11.40;;
42066;SDS011;27734;47.028;28.820;2023-03-24T13:28:09;20.37;;;11.35;;
42066;SDS011;27734;47.028;28.820;2023-03-24T13:30:50;20.57;;;10.87;;
42066;SDS011;27734;47.028;28.820;2023-03-24T13:33:23;19.40;;;10.80;;
42066;SDS011;27734;47.028;28.820;2023-03-24T13:36:10;17.50;;;10.17;;
42066;SDS011;27734;47.028;28.820;2023-03-24T13:38:58;19.25;;;9.90;;
42066;SDS011;27734;47.028;28.820;2023-03-24T13:41:38;24.13;;;11.03;;
42066;SDS011;27734;47.028;28.820;2023-03-24T13:44:16;20.00;;;10.77;;
42066;SDS011;27734;47.028;28.820;2023-03-24T13:47:02;20.07;;;10.90;;
42066;SDS011;27734;47.028;28.820;2023-03-24T13:52:39;19.40;;;11.17;;
42066;SDS011;27734;47.028;28.820;2023-03-24T13:56:00;19.97;;;10.23;;
42066;SDS011;27734;47.028;28.820;2023-03-24T13:59:04;18.17;;;10.13;;
42066;SDS011;27734;47.028;28.820;2023-03-24T14:05:33;16.73;;;9.20;;
42066;SDS011;27734;47.028;28.820;2023-03-24T14:08:32;20.37;;;9.47;;
42066;SDS011;27734;47.028;28.820;2023-03-24T14:14:22;19.73;;;9.70;;
42066;SDS011;27734;47.028;28.820;2023-03-24T14:17:05;20.60;;;10.37;;
42066;SDS011;27734;47.028;28.820;2023-03-24T14:19:44;18.50;;;10.10;;
42066;SDS011;27734;47.028;28.820;2023-03-24T14:22:53;19.03;;;10.00;;
42066;SDS011;27734;47.028;28.820;2023-03-24T14:25:35;21.47;;;10.20;;
42066;SDS011;27734;47.028;28.820;2023-03-24T14:31:16;18.57;;;9.53;;
42066;SDS011;27734;47.028;28.820;2023-03-24T14:34:16;19.63;;;10.27;;
42066;SDS011;27734;47.028;28.820;2023-03-24T14:36:56;18.37;;;10.20;;
42066;SDS011;27734;47.028;28.820;2023-03-24T14:39:31;16.73;;;9.00;;
42066;SDS011;27734;47.028;28.820;2023-03-24T14:45:38;16.63;;;8.83;;
42066;SDS011;27734;47.028;28.820;2023-03-24T14:48:22;23.45;;;9.43;;
42066;SDS011;27734;47.028;28.820;2023-03-24T14:51:02;19.70;;;9.50;;
42066;SDS011;27734;47.028;28.820;2023-03-24T14:53:40;19.00;;;9.40;;
42066;SDS011;27734;47.028;28.820;2023-03-24T14:56:15;19.40;;;9.93;;
42066;SDS011;27734;47.028;28.820;2023-03-24T14:58:53;19.10;;;9.60;;
42066;SDS011;27734;47.028;28.820;2023-03-24T15:06:01;21.27;;;9.80;;
42066;SDS011;27734;47.028;28.820;2023-03-24T15:11:55;18.00;;;9.77;;
42066;SDS011;27734;47.028;28.820;2023-03-24T15:14:28;20.20;;;9.88;;
42066;SDS011;27734;47.028;28.820;2023-03-24T15:17:03;19.57;;;10.18;;
42066;SDS011;27734;47.028;28.820;2023-03-24T15:19:45;18.77;;;9.70;;
42066;SDS011;27734;47.028;28.820;2023-03-24T15:22:20;26.40;;;10.33;;
42066;SDS011;27734;47.028;28.820;2023-03-24T15:24:51;18.83;;;10.10;;
42066;SDS011;27734;47.028;28.820;2023-03-24T15:27:35;24.60;;;11.13;;
42066;SDS011;27734;47.028;28.820;2023-03-24T15:30:13;26.27;;;10.43;;
42066;SDS011;27734;47.028;28.820;2023-03-24T15:32:45;20.40;;;9.60;;
42066;SDS011;27734;47.028;28.820;2023-03-24T15:35:21;20.43;;;10.03;;
42066;SDS011;27734;47.028;28.820;2023-03-24T15:37:53;25.00;;;10.77;;
42066;SDS011;27734;47.028;28.820;2023-03-24T15:40:36;26.57;;;11.20;;
42066;SDS011;27734;47.028;28.820;2023-03-24T15:43:15;20.70;;;9.40;;
42066;SDS011;27734;47.028;28.820;2023-03-24T15:45:50;21.47;;;10.33;;
42066;SDS011;27734;47.028;28.820;2023-03-24T15:48:29;19.53;;;9.90;;
42066;SDS011;27734;47.028;28.820;2023-03-24T15:51:04;21.40;;;10.10;;
42066;SDS011;27734;47.028;28.820;2023-03-24T15:53:39;17.23;;;9.23;;
42066;SDS011;27734;47.028;28.820;2023-03-24T15:56:17;20.40;;;9.80;;
42066;SDS011;27734;47.028;28.820;2023-03-24T15:58:54;19.83;;;10.10;;
42066;SDS011;27734;47.028;28.820;2023-03-24T16:01:36;22.67;;;10.00;;
42066;SDS011;27734;47.028;28.820;2023-03-24T16:04:12;22.35;;;9.30;;
42066;SDS011;27734;47.028;28.820;2023-03-24T16:06:47;20.47;;;10.03;;